createdAt,value
2019-01-11T00:00:26.654Z,5.73
2019-01-11T00:02:31.310Z,6.40
2019-01-11T00:04:36.343Z,5.80
2019-01-11T00:06:41.600Z,5.50
2019-01-11T00:08:46.035Z,2.50
2019-01-11T00:10:50.777Z,3.70
2019-01-11T00:12:56.072Z,5.90
2019-01-11T00:15:00.575Z,5.13
2019-01-11T00:17:07.739Z,8.00
2019-01-11T00:19:12.444Z,5.87
2019-01-11T00:21:17.732Z,3.00
2019-01-11T00:23:22.676Z,4.37
2019-01-11T00:25:27.648Z,5.60
2019-01-11T00:27:32.085Z,3.50
2019-01-11T00:29:37.384Z,3.60
2019-01-11T00:31:41.908Z,8.40
2019-01-11T00:33:49.077Z,8.70
2019-01-11T00:35:53.944Z,6.73
2019-01-11T00:37:59.033Z,3.87
2019-01-11T00:40:05.833Z,12.23
2019-01-11T00:42:10.353Z,6.70
2019-01-11T00:44:14.795Z,5.73
2019-01-11T00:46:19.198Z,10.73
2019-01-11T00:48:27.545Z,8.97
2019-01-11T00:50:38.877Z,11.30
2019-01-11T00:52:44.074Z,9.70
2019-01-11T00:54:48.888Z,10.70
2019-01-11T00:56:53.263Z,6.33
2019-01-11T00:58:58.063Z,7.23
2019-01-11T01:01:02.618Z,7.83
2019-01-11T01:03:08.335Z,8.90
2019-01-11T01:05:12.942Z,7.53
2019-01-11T01:07:17.791Z,8.53
2019-01-11T01:09:24.579Z,7.23
2019-01-11T01:11:33.328Z,10.10
2019-01-11T01:13:39.574Z,12.93
2019-01-11T01:15:45.162Z,8.97
2019-01-11T01:17:50.831Z,10.63
2019-01-11T01:20:01.997Z,6.10
2019-01-11T01:22:06.523Z,9.67
2019-01-11T01:24:12.800Z,7.30
2019-01-11T01:26:17.233Z,6.20
2019-01-11T01:28:23.069Z,9.03
2019-01-11T01:30:28.788Z,8.90
2019-01-11T01:32:33.999Z,7.20
2019-01-11T01:34:38.431Z,8.27
2019-01-11T01:36:43.263Z,7.67
2019-01-11T01:38:47.893Z,9.20
2019-01-11T01:40:52.404Z,7.70
2019-01-11T01:43:00.972Z,8.20
2019-01-11T01:45:13.446Z,7.07
2019-01-11T01:47:18.187Z,9.97
2019-01-11T01:49:26.493Z,8.33
2019-01-11T01:51:29.556Z,10.77
2019-01-11T01:53:34.454Z,6.80
2019-01-11T01:55:39.273Z,7.33
2019-01-11T01:57:43.768Z,7.30
2019-01-11T01:59:51.011Z,11.30
2019-01-11T02:01:55.436Z,18.30
2019-01-11T02:04:00.625Z,14.20
2019-01-11T02:06:05.190Z,10.40
2019-01-11T02:08:13.715Z,9.67
2019-01-11T02:10:18.453Z,10.33
2019-01-11T02:12:26.324Z,11.33
2019-01-11T02:14:30.744Z,11.90
2019-01-11T02:16:35.511Z,13.23
2019-01-11T02:18:42.001Z,10.60
2019-01-11T02:20:46.839Z,11.70
2019-01-11T02:22:51.622Z,19.87
2019-01-11T02:24:56.121Z,9.40
2019-01-11T02:27:00.611Z,9.83
2019-01-11T02:29:05.401Z,11.47
2019-01-11T02:31:10.252Z,15.93
2019-01-11T02:33:14.734Z,14.77
2019-01-11T02:35:19.156Z,11.03
2019-01-11T02:37:23.607Z,15.17
2019-01-11T02:39:28.564Z,8.80
2019-01-11T02:41:33.335Z,12.13
2019-01-11T02:43:37.723Z,13.43
2019-01-11T02:45:42.668Z,20.80
2019-01-11T02:47:47.986Z,14.97
2019-01-11T02:49:52.798Z,11.43
2019-01-11T02:51:57.508Z,11.87
2019-01-11T02:54:07.200Z,16.07
2019-01-11T02:56:11.574Z,14.40
2019-01-11T02:58:21.445Z,12.43
2019-01-11T03:00:31.195Z,10.30
2019-01-11T03:02:35.877Z,23.07
2019-01-11T03:04:43.802Z,17.20
2019-01-11T03:06:49.123Z,12.63
2019-01-11T03:08:53.909Z,15.20
2019-01-11T03:10:58.337Z,17.60
2019-01-11T03:13:04.427Z,14.87
2019-01-11T03:15:09.255Z,11.90
2019-01-11T03:17:13.715Z,19.57
2019-01-11T03:19:20.547Z,20.60
2019-01-11T03:21:24.950Z,13.40
2019-01-11T03:23:32.233Z,16.60
2019-01-11T03:25:40.231Z,12.97
2019-01-11T03:27:45.828Z,16.40
2019-01-11T03:29:50.431Z,14.43
2019-01-11T03:31:56.366Z,14.10
2019-01-11T03:34:00.928Z,16.20
2019-01-11T03:36:05.384Z,14.00
2019-01-11T03:38:09.962Z,17.23
2019-01-11T03:40:15.145Z,14.20
2019-01-11T03:42:22.369Z,21.40
2019-01-11T03:44:27.231Z,15.67
2019-01-11T03:46:31.786Z,14.27
2019-01-11T03:48:36.688Z,16.47
2019-01-11T03:50:41.158Z,20.50
2019-01-11T03:52:45.609Z,19.23
2019-01-11T03:54:52.743Z,18.00
2019-01-11T03:56:57.304Z,14.90
2019-01-11T03:59:04.045Z,29.07
2019-01-11T04:01:08.498Z,16.80
2019-01-11T04:03:12.955Z,27.00
2019-01-11T04:05:20.286Z,26.83
2019-01-11T04:07:25.018Z,16.20
2019-01-11T04:09:31.052Z,15.83
2019-01-11T04:11:36.984Z,16.00
2019-01-11T04:13:41.381Z,17.77
2019-01-11T04:15:46.156Z,19.10
2019-01-11T04:18:08.888Z,16.60
2019-01-11T04:20:16.318Z,17.93
2019-01-11T04:22:27.785Z,16.90
2019-01-11T04:24:40.919Z,19.43
2019-01-11T04:26:47.900Z,18.30
2019-01-11T04:28:52.327Z,22.37
2019-01-11T04:30:56.789Z,16.70
2019-01-11T04:33:05.053Z,18.00
2019-01-11T04:35:12.662Z,14.70
2019-01-11T04:37:18.664Z,16.30
2019-01-11T04:39:23.051Z,17.10
2019-01-11T04:41:27.564Z,15.80
2019-01-11T04:43:32.216Z,15.43
2019-01-11T04:45:36.816Z,19.70
2019-01-11T04:47:42.289Z,14.23
2019-01-11T04:49:46.786Z,16.93
2019-01-11T04:51:51.396Z,16.23
2019-01-11T04:53:57.591Z,19.40
2019-01-11T04:56:05.498Z,15.27
2019-01-11T04:58:09.955Z,19.50
2019-01-11T05:00:23.470Z,13.73
2019-01-11T05:02:28.306Z,13.53
2019-01-11T05:04:32.901Z,17.20
2019-01-11T05:06:37.639Z,21.20
2019-01-11T05:08:42.932Z,22.73
2019-01-11T05:10:49.635Z,25.67
2019-01-11T05:12:57.711Z,24.87
2019-01-11T05:15:02.656Z,24.00
2019-01-11T05:17:09.068Z,23.00
2019-01-11T05:19:13.637Z,21.57
2019-01-11T05:21:18.090Z,23.77
2019-01-11T05:23:22.770Z,19.90
2019-01-11T05:25:28.517Z,21.83
2019-01-11T05:27:32.958Z,22.07
2019-01-11T05:29:37.448Z,23.47
2019-01-11T05:31:42.062Z,18.67
2019-01-11T05:33:50.062Z,20.30
2019-01-11T05:35:54.516Z,18.90
2019-01-11T05:37:59.127Z,20.93
2019-01-11T05:40:04.864Z,18.97
2019-01-11T05:42:09.919Z,18.47
2019-01-11T05:44:17.449Z,21.10
2019-01-11T05:46:22.393Z,22.67
2019-01-11T05:48:26.829Z,15.47
2019-01-11T05:50:31.750Z,22.10
2019-01-11T05:52:36.400Z,17.83
2019-01-11T05:54:40.875Z,29.40
2019-01-11T05:56:48.813Z,21.73
2019-01-11T05:58:57.185Z,22.33
2019-01-11T06:01:02.177Z,18.97
2019-01-11T06:03:09.036Z,23.37
2019-01-11T06:05:13.109Z,24.10
2019-01-11T06:07:21.620Z,27.23
2019-01-11T06:09:27.915Z,24.47
2019-01-11T06:11:34.167Z,19.67
2019-01-11T06:13:39.204Z,20.30
2019-01-11T06:15:43.982Z,18.33
2019-01-11T06:17:48.791Z,23.07
2019-01-11T06:19:53.917Z,28.40
2019-01-11T06:21:58.675Z,24.87
2019-01-11T06:24:04.584Z,30.13
2019-01-11T06:26:09.265Z,29.30
2019-01-11T06:28:14.108Z,29.77
2019-01-11T06:30:21.757Z,33.50
2019-01-11T06:32:38.797Z,38.17
2019-01-11T06:34:44.999Z,29.80
2019-01-11T06:36:52.758Z,32.00
2019-01-11T06:38:59.179Z,22.67
2019-01-11T06:41:04.237Z,28.80
2019-01-11T06:43:09.115Z,31.10
2019-01-11T06:45:13.848Z,30.00
2019-01-11T06:47:18.536Z,29.30
2019-01-11T06:49:22.909Z,32.63
2019-01-11T06:51:30.485Z,26.13
2019-01-11T06:53:35.139Z,26.43
2019-01-11T06:55:40.350Z,30.70
2019-01-11T06:57:45.163Z,30.67
2019-01-11T06:59:54.035Z,43.60
2019-01-11T07:01:59.785Z,28.37
2019-01-11T07:04:04.217Z,30.87
2019-01-11T07:06:11.385Z,23.63
2019-01-11T07:08:16.054Z,28.00
2019-01-11T07:10:22.845Z,32.73
2019-01-11T07:12:27.060Z,29.30
2019-01-11T07:14:31.718Z,40.33
2019-01-11T07:16:36.856Z,27.83
2019-01-11T07:18:42.926Z,28.93
2019-01-11T07:20:47.281Z,28.37
2019-01-11T07:22:52.543Z,29.13
2019-01-11T07:25:00.351Z,30.33
2019-01-11T07:27:04.816Z,29.77
2019-01-11T07:29:09.632Z,34.20
2019-01-11T07:31:15.687Z,26.07
2019-01-11T07:33:21.672Z,30.00
2019-01-11T07:35:36.427Z,36.37
2019-01-11T07:37:41.002Z,30.13
2019-01-11T07:39:45.409Z,29.47
2019-01-11T07:41:50.156Z,26.70
2019-01-11T07:43:54.610Z,31.27
2019-01-11T07:46:02.010Z,42.80
2019-01-11T07:48:09.698Z,24.50
2019-01-11T07:50:16.868Z,29.80
2019-01-11T07:52:21.285Z,36.80
2019-01-11T07:54:25.711Z,27.93
2019-01-11T07:56:30.136Z,25.73
2019-01-11T07:58:36.340Z,26.13
2019-01-11T08:00:43.902Z,30.10
2019-01-11T08:02:48.355Z,22.70
2019-01-11T08:04:52.739Z,28.00
2019-01-11T08:06:57.244Z,26.40
2019-01-11T08:09:01.874Z,21.33
2019-01-11T08:11:06.698Z,25.73
2019-01-11T08:13:12.271Z,29.83
2019-01-11T08:15:19.045Z,30.33
2019-01-11T08:17:23.487Z,25.30
2019-01-11T08:19:27.800Z,26.57
2019-01-11T08:21:32.316Z,25.87
2019-01-11T08:23:37.174Z,30.20
2019-01-11T08:25:43.835Z,25.13
2019-01-11T08:27:48.479Z,28.83
2019-01-11T08:29:52.946Z,28.67
2019-01-11T08:31:57.495Z,30.23
2019-01-11T08:34:04.972Z,34.93
2019-01-11T08:36:09.331Z,27.63
2019-01-11T08:38:14.548Z,23.30
2019-01-11T08:40:18.974Z,33.30
2019-01-11T08:42:23.353Z,30.10
2019-01-11T08:44:28.479Z,26.23
2019-01-11T08:46:33.234Z,25.33
2019-01-11T08:48:38.026Z,17.70
2019-01-11T08:50:42.354Z,25.93
2019-01-11T08:52:46.903Z,28.10
2019-01-11T08:54:51.564Z,21.90
2019-01-11T08:56:56.013Z,27.40
2019-01-11T08:59:00.509Z,32.80
2019-01-11T09:01:05.325Z,32.47
2019-01-11T09:03:10.157Z,20.73
2019-01-11T09:05:14.630Z,28.43
2019-01-11T09:07:19.484Z,26.83
2019-01-11T09:09:24.466Z,23.30
2019-01-11T09:11:28.919Z,22.57
2019-01-11T09:13:35.654Z,30.43
2019-01-11T09:15:40.452Z,27.37
2019-01-11T09:18:02.262Z,27.60
2019-01-11T09:20:06.935Z,29.33
2019-01-11T09:22:11.351Z,22.27
2019-01-11T09:24:18.019Z,28.50
2019-01-11T09:26:24.390Z,29.37
2019-01-11T09:28:31.268Z,24.40
2019-01-11T09:30:35.707Z,23.70
2019-01-11T09:32:40.074Z,25.03
2019-01-11T09:34:44.493Z,26.43
2019-01-11T09:36:50.351Z,39.73
2019-01-11T09:38:56.691Z,30.73
2019-01-11T09:41:01.506Z,25.37
2019-01-11T09:43:06.057Z,27.90
2019-01-11T09:45:10.623Z,26.07
2019-01-11T09:47:15.103Z,26.80
2019-01-11T09:49:19.856Z,23.77
2019-01-11T09:51:26.085Z,25.37
2019-01-11T09:53:31.313Z,34.10
2019-01-11T09:55:35.770Z,22.77
2019-01-11T09:57:40.149Z,27.87
2019-01-11T09:59:45.452Z,25.63
2019-01-11T10:02:02.778Z,28.80
2019-01-11T10:04:08.834Z,29.03
2019-01-11T10:06:13.260Z,25.57
2019-01-11T10:08:27.611Z,44.03
2019-01-11T10:10:33.703Z,37.40
2019-01-11T10:12:38.122Z,29.10
2019-01-11T10:14:42.562Z,29.47
2019-01-11T10:16:47.149Z,41.63
2019-01-11T10:18:51.635Z,42.73
2019-01-11T10:20:59.718Z,37.17
2019-01-11T10:23:04.225Z,40.90
2019-01-11T10:25:11.906Z,40.03
2019-01-11T10:27:17.198Z,36.80
2019-01-11T10:29:21.565Z,32.60
2019-01-11T10:31:25.923Z,29.57
2019-01-11T10:33:35.972Z,42.13
2019-01-11T10:35:36.558Z,31.37
2019-01-11T10:37:41.363Z,45.13
2019-01-11T10:39:47.575Z,36.50
2019-01-11T10:41:52.042Z,29.60
2019-01-11T10:43:56.640Z,33.37
2019-01-11T10:46:03.431Z,34.37
2019-01-11T10:48:07.967Z,38.90
2019-01-11T10:50:14.545Z,31.03
2019-01-11T10:52:19.355Z,30.00
2019-01-11T10:54:42.444Z,34.93
2019-01-11T10:56:50.316Z,37.00
2019-01-11T10:58:55.478Z,32.37
2019-01-11T11:01:01.033Z,32.90
2019-01-11T11:03:07.937Z,38.40
2019-01-11T11:05:12.588Z,35.93
2019-01-11T11:07:17.433Z,40.37
2019-01-11T11:09:21.824Z,43.07
2019-01-11T11:11:27.305Z,29.23
2019-01-11T11:13:32.413Z,33.13
2019-01-11T11:15:38.359Z,42.50
2019-01-11T11:17:42.812Z,43.83
2019-01-11T11:19:47.136Z,38.37
2019-01-11T11:21:51.547Z,49.17
2019-01-11T11:23:56.085Z,39.47
2019-01-11T11:26:00.524Z,48.57
2019-01-11T11:28:04.896Z,51.43
2019-01-11T11:30:11.128Z,51.73
2019-01-11T11:32:17.558Z,36.90
2019-01-11T11:34:28.407Z,52.40
2019-01-11T11:36:33.279Z,52.57
2019-01-11T11:38:37.637Z,37.93
2019-01-11T11:40:43.056Z,56.03
2019-01-11T11:42:47.488Z,60.90
2019-01-11T11:44:51.944Z,40.47
2019-01-11T11:46:56.367Z,49.23
2019-01-11T11:49:00.817Z,49.57
2019-01-11T11:51:05.288Z,44.00
2019-01-11T11:53:09.702Z,55.27
2019-01-11T11:55:17.142Z,40.77
2019-01-11T11:57:21.659Z,36.80
2019-01-11T11:59:26.157Z,41.23
2019-01-11T12:01:33.491Z,48.47
2019-01-11T12:03:38.139Z,58.70
2019-01-11T12:05:44.062Z,47.93
2019-01-11T12:07:49.003Z,56.53
2019-01-11T12:09:54.224Z,44.83
2019-01-11T12:11:58.872Z,48.27
2019-01-11T12:14:03.311Z,42.53
2019-01-11T12:16:07.964Z,47.77
2019-01-11T12:18:12.648Z,50.10
2019-01-11T12:20:36.787Z,57.30
2019-01-11T12:22:41.145Z,50.07
2019-01-11T12:24:45.875Z,50.83
2019-01-11T12:26:50.262Z,44.23
2019-01-11T12:28:55.424Z,45.57
2019-01-11T12:31:00.149Z,56.27
2019-01-11T12:33:04.695Z,42.53
2019-01-11T12:35:09.119Z,49.83
2019-01-11T12:37:13.486Z,28.13
2019-01-11T12:39:17.865Z,40.23
2019-01-11T12:41:23.209Z,53.50
2019-01-11T12:43:27.596Z,55.27
2019-01-11T12:45:32.360Z,38.63
2019-01-11T12:47:36.743Z,42.30
2019-01-11T12:49:43.184Z,57.40
2019-01-11T12:51:53.868Z,40.13
2019-01-11T12:53:54.378Z,32.27
2019-01-11T12:55:59.012Z,48.60
2019-01-11T12:58:03.806Z,65.53
2019-01-11T13:00:15.404Z,48.20
2019-01-11T13:02:19.822Z,51.13
2019-01-11T13:04:24.681Z,43.07
2019-01-11T13:06:29.725Z,36.33
2019-01-11T13:08:35.295Z,51.30
2019-01-11T13:10:40.118Z,41.73
2019-01-11T13:12:44.609Z,32.70
2019-01-11T13:14:49.159Z,40.47
2019-01-11T13:16:53.622Z,37.57
2019-01-11T13:18:58.228Z,43.90
2019-01-11T13:21:03.039Z,38.93
2019-01-11T13:23:07.899Z,41.30
2019-01-11T13:25:13.847Z,41.27
2019-01-11T13:27:18.308Z,44.80
2019-01-11T13:29:22.934Z,39.43
2019-01-11T13:31:27.495Z,36.50
2019-01-11T13:33:31.989Z,33.77
2019-01-11T13:35:38.504Z,44.77
2019-01-11T13:37:42.927Z,40.47
2019-01-11T13:39:47.383Z,38.30
2019-01-11T13:41:51.979Z,40.77
2019-01-11T13:43:57.130Z,34.90
2019-01-11T13:46:01.978Z,22.03
2019-01-11T13:48:06.985Z,38.57
2019-01-11T13:50:17.622Z,39.73
2019-01-11T13:52:22.099Z,33.77
2019-01-11T13:54:28.224Z,20.93
2019-01-11T13:56:33.167Z,35.07
2019-01-11T13:58:38.135Z,35.03
2019-01-11T14:00:45.985Z,33.93
2019-01-11T14:02:50.670Z,29.77
2019-01-11T14:04:56.884Z,34.57
2019-01-11T14:07:01.345Z,37.43
2019-01-11T14:09:08.627Z,42.80
2019-01-11T14:11:15.902Z,30.30
2019-01-11T14:13:21.793Z,34.47
2019-01-11T14:15:26.180Z,26.27
2019-01-11T14:17:30.652Z,24.87
2019-01-11T14:19:35.096Z,22.00
2019-01-11T14:21:39.552Z,29.47
2019-01-11T14:23:44.007Z,28.60
2019-01-11T14:25:48.854Z,22.43
2019-01-11T14:27:53.263Z,25.00
2019-01-11T14:29:57.737Z,25.57
2019-01-11T14:32:02.156Z,30.80
2019-01-11T14:34:06.856Z,21.00
2019-01-11T14:36:11.377Z,27.30
2019-01-11T14:38:15.861Z,22.63
2019-01-11T14:40:20.428Z,15.00
2019-01-11T14:42:25.851Z,21.10
2019-01-11T14:44:30.659Z,19.67
2019-01-11T14:46:36.225Z,19.13
2019-01-11T14:48:40.630Z,17.97
2019-01-11T14:50:45.135Z,20.30
2019-01-11T14:52:49.580Z,12.70
2019-01-11T14:54:54.096Z,19.10
2019-01-11T14:56:58.605Z,14.77
2019-01-11T14:59:03.966Z,15.70
2019-01-11T15:01:11.969Z,21.37
2019-01-11T15:03:16.757Z,14.87
2019-01-11T15:05:24.082Z,15.40
2019-01-11T15:07:28.570Z,21.53
2019-01-11T15:09:33.083Z,13.67
2019-01-11T15:11:37.448Z,21.73
2019-01-11T15:13:41.930Z,13.60
2019-01-11T15:15:54.458Z,16.57
2019-01-11T15:18:01.138Z,11.20
2019-01-11T15:20:07.534Z,14.77
2019-01-11T15:22:12.724Z,12.40
2019-01-11T15:24:17.601Z,11.50
2019-01-11T15:26:22.144Z,7.90
2019-01-11T15:28:26.611Z,8.90
2019-01-11T15:30:32.569Z,8.33
2019-01-11T15:32:37.134Z,10.70
2019-01-11T15:34:41.990Z,11.10
2019-01-11T15:36:46.561Z,11.77
2019-01-11T15:38:50.986Z,11.70
2019-01-11T15:40:55.840Z,9.20
2019-01-11T15:43:01.651Z,6.43
2019-01-11T15:45:10.500Z,12.40
2019-01-11T15:47:19.308Z,8.90
2019-01-11T15:49:24.791Z,12.63
2019-01-11T15:51:31.086Z,9.73
2019-01-11T15:53:37.590Z,13.30
2019-01-11T15:55:45.262Z,12.87
2019-01-11T15:57:49.815Z,8.73
2019-01-11T16:00:02.135Z,8.27
2019-01-11T16:02:06.657Z,7.00
2019-01-11T16:04:12.599Z,9.83
2019-01-11T16:06:36.473Z,15.23
2019-01-11T16:09:23.896Z,9.00
2019-01-11T16:11:48.436Z,9.23
2019-01-11T16:14:19.878Z,9.83
2019-01-11T16:17:05.386Z,10.60
2019-01-11T16:21:57.062Z,7.23
2019-01-11T16:24:02.589Z,8.60
2019-01-11T16:26:11.156Z,10.70
2019-01-11T16:28:16.591Z,6.20
2019-01-11T16:30:21.080Z,7.40
2019-01-11T16:32:25.538Z,9.73
2019-01-11T16:34:32.751Z,8.43
2019-01-11T16:36:37.217Z,16.13
2019-01-11T16:38:43.295Z,9.20
2019-01-11T16:40:48.187Z,7.50
2019-01-11T16:42:53.792Z,8.67
2019-01-11T16:44:59.563Z,12.33
2019-01-11T16:47:04.957Z,9.63
2019-01-11T16:49:13.234Z,8.83
2019-01-11T16:51:20.077Z,12.50
2019-01-11T16:53:25.410Z,8.47
2019-01-11T16:55:30.136Z,13.47
2019-01-11T16:57:37.600Z,14.63
2019-01-11T16:59:42.282Z,16.30
2019-01-11T17:01:49.942Z,7.43
2019-01-11T17:03:56.341Z,11.07
2019-01-11T17:06:01.895Z,6.73
2019-01-11T17:08:10.165Z,7.10
2019-01-11T17:10:17.413Z,4.63
2019-01-11T17:12:28.645Z,10.80
2019-01-11T17:14:33.488Z,21.10
2019-01-11T17:16:37.823Z,8.43
2019-01-11T17:18:42.162Z,11.53
2019-01-11T17:20:48.752Z,16.93
2019-01-11T17:22:53.439Z,12.33
2019-01-11T17:25:01.514Z,6.70
2019-01-11T17:27:05.984Z,11.50
2019-01-11T17:29:11.429Z,11.07
2019-01-11T17:31:17.356Z,14.77
2019-01-11T17:33:22.217Z,7.97
2019-01-11T17:35:26.745Z,9.33
2019-01-11T17:37:31.372Z,12.10
2019-01-11T17:39:35.863Z,17.43
2019-01-11T17:41:40.325Z,22.73
2019-01-11T17:43:45.199Z,9.63
2019-01-11T17:45:50.652Z,13.20
2019-01-11T17:47:55.143Z,10.53
2019-01-11T17:50:01.215Z,6.57
2019-01-11T17:52:08.318Z,15.50
2019-01-11T17:54:13.257Z,14.63
2019-01-11T17:56:17.742Z,18.40
2019-01-11T17:58:24.557Z,13.77
2019-01-11T18:00:28.919Z,13.10
2019-01-11T18:02:33.847Z,13.70
2019-01-11T18:04:38.631Z,15.40
2019-01-11T18:06:43.425Z,17.57
2019-01-11T18:08:47.979Z,18.67
2019-01-11T18:10:52.488Z,13.07
2019-01-11T18:12:57.012Z,13.20
2019-01-11T18:15:01.636Z,12.97
2019-01-11T18:17:06.527Z,11.73
2019-01-11T18:19:11.305Z,11.50
2019-01-11T18:21:16.997Z,10.90
2019-01-11T18:23:21.777Z,15.40
2019-01-11T18:25:26.281Z,11.30
2019-01-11T18:27:33.661Z,8.67
2019-01-11T18:29:38.156Z,15.03
2019-01-11T18:31:47.066Z,10.97
2019-01-11T18:33:51.633Z,18.17
2019-01-11T18:35:58.835Z,19.10
2019-01-11T18:38:03.371Z,13.40
2019-01-11T18:40:16.700Z,13.53
2019-01-11T18:42:22.365Z,15.13
2019-01-11T18:44:27.238Z,19.33
2019-01-11T18:46:32.361Z,15.27
2019-01-11T18:48:38.415Z,17.17
2019-01-11T18:50:43.903Z,18.10
2019-01-11T18:52:51.430Z,12.30
2019-01-11T18:54:56.169Z,13.60
2019-01-11T18:57:00.682Z,18.37
2019-01-11T18:59:09.507Z,12.67
2019-01-11T19:01:14.259Z,13.87
2019-01-11T19:03:18.805Z,12.77
2019-01-11T19:05:23.321Z,11.93
2019-01-11T19:07:27.842Z,19.70
2019-01-11T19:09:37.451Z,11.17
2019-01-11T19:11:43.187Z,9.60
2019-01-11T19:13:47.766Z,14.97
2019-01-11T19:15:55.062Z,15.70
2019-01-11T19:17:59.590Z,14.33
2019-01-11T19:20:07.619Z,14.40
2019-01-11T19:22:15.145Z,13.47
2019-01-11T19:24:19.789Z,13.70
2019-01-11T19:26:27.071Z,12.17
2019-01-11T19:28:35.363Z,14.67
2019-01-11T19:30:40.239Z,23.13
2019-01-11T19:32:44.818Z,24.13
2019-01-11T19:34:49.871Z,12.93
2019-01-11T19:36:55.512Z,15.00
2019-01-11T19:39:02.394Z,13.63
2019-01-11T19:41:07.007Z,19.07
2019-01-11T19:43:11.741Z,15.83
2019-01-11T19:45:16.283Z,15.10
2019-01-11T19:47:21.005Z,17.77
2019-01-11T19:49:26.888Z,25.00
2019-01-11T19:51:32.008Z,18.40
2019-01-11T19:53:36.891Z,13.03
2019-01-11T19:55:46.662Z,17.50
2019-01-11T19:57:56.104Z,19.83
2019-01-11T20:00:03.269Z,18.63
2019-01-11T20:02:07.950Z,15.23
2019-01-11T20:04:14.354Z,13.40
2019-01-11T20:06:22.001Z,12.30
2019-01-11T20:08:26.908Z,16.90
2019-01-11T20:10:33.441Z,18.07
2019-01-11T20:12:39.822Z,18.63
2019-01-11T20:14:47.218Z,15.77
2019-01-11T20:16:56.054Z,18.43
2019-01-11T20:19:04.894Z,15.13
2019-01-11T20:21:11.489Z,16.67
2019-01-11T20:23:17.670Z,16.27
2019-01-11T20:25:24.064Z,14.30
2019-01-11T20:27:29.087Z,19.20
2019-01-11T20:29:37.881Z,18.80
2019-01-11T20:31:44.302Z,17.60
2019-01-11T20:33:51.074Z,15.97
2019-01-11T20:35:59.015Z,15.17
2019-01-11T20:38:06.961Z,10.40
2019-01-11T20:40:15.465Z,18.63
2019-01-11T20:42:21.141Z,15.10
2019-01-11T20:44:26.930Z,16.53
2019-01-11T20:46:33.787Z,27.87
2019-01-11T20:48:41.888Z,14.60
2019-01-11T20:50:50.730Z,16.50
2019-01-11T20:52:59.411Z,17.03
2019-01-11T20:55:05.432Z,11.53
2019-01-11T20:57:10.344Z,23.73
2019-01-11T20:59:21.277Z,20.17
2019-01-11T21:01:28.138Z,19.20
2019-01-11T21:03:35.235Z,17.47
2019-01-11T21:05:42.104Z,18.47
2019-01-11T21:07:47.014Z,16.07
2019-01-11T21:09:54.010Z,16.77
2019-01-11T21:12:01.017Z,15.00
2019-01-11T21:14:23.692Z,12.83
2019-01-11T21:16:28.978Z,19.87
2019-01-11T21:18:34.550Z,16.07
2019-01-11T21:20:39.551Z,16.33
2019-01-11T21:22:46.234Z,14.27
2019-01-11T21:24:59.996Z,13.10
2019-01-11T21:27:04.930Z,16.37
2019-01-11T21:29:11.820Z,24.57
2019-01-11T21:31:19.915Z,16.73
2019-01-11T21:33:26.958Z,19.47
2019-01-11T21:35:34.407Z,18.30
2019-01-11T21:37:41.141Z,16.57
2019-01-11T21:39:48.463Z,12.80
2019-01-11T21:41:53.850Z,17.07
2019-01-11T21:44:00.455Z,11.87
2019-01-11T21:46:05.363Z,18.77
2019-01-11T21:48:10.238Z,19.40
2019-01-11T21:50:16.870Z,21.73
2019-01-11T21:52:22.644Z,16.47
2019-01-11T21:54:30.841Z,11.37
2019-01-11T21:56:35.511Z,15.73
2019-01-11T21:58:40.720Z,14.17
2019-01-11T22:00:47.375Z,19.37
2019-01-11T22:02:52.399Z,12.47
2019-01-11T22:05:00.786Z,19.53
2019-01-11T22:07:05.359Z,13.73
2019-01-11T22:09:10.005Z,16.70
2019-01-11T22:11:14.774Z,12.77
2019-01-11T22:13:19.919Z,10.73
2019-01-11T22:15:24.576Z,12.30
2019-01-11T22:17:30.053Z,10.27
2019-01-11T22:19:34.716Z,13.80
2019-01-11T22:21:40.901Z,11.20
2019-01-11T22:23:45.521Z,11.37
2019-01-11T22:25:50.975Z,11.27
2019-01-11T22:27:55.439Z,15.07
2019-01-11T22:29:59.988Z,10.30
2019-01-11T22:32:04.924Z,14.97
2019-01-11T22:34:09.786Z,11.90
2019-01-11T22:36:20.185Z,13.33
2019-01-11T22:38:25.021Z,15.90
2019-01-11T22:40:29.499Z,10.70
2019-01-11T22:42:35.035Z,12.60
2019-01-11T22:44:40.934Z,13.73
2019-01-11T22:46:45.375Z,15.43
2019-01-11T22:48:50.000Z,11.60
2019-01-11T22:50:55.623Z,16.67
2019-01-11T22:53:00.900Z,13.20
2019-01-11T22:55:08.038Z,20.90
2019-01-11T22:57:13.590Z,14.30
2019-01-11T22:59:18.230Z,12.70
2019-01-11T23:01:52.703Z,25.17
2019-01-11T23:03:57.176Z,25.63
2019-01-11T23:06:09.155Z,20.83
2019-01-11T23:08:17.624Z,15.00
2019-01-11T23:10:52.931Z,19.70
2019-01-11T23:13:03.558Z,18.77
2019-01-11T23:15:12.535Z,14.23
2019-01-11T23:17:46.514Z,23.10
2019-01-11T23:19:51.421Z,19.43
2019-01-11T23:21:57.403Z,19.97
2019-01-11T23:24:01.959Z,20.03
2019-01-11T23:26:06.744Z,25.10
2019-01-11T23:28:15.283Z,18.57
2019-01-11T23:30:19.922Z,15.13
2019-01-11T23:32:28.628Z,12.50
2019-01-11T23:34:33.083Z,13.17
2019-01-11T23:36:39.718Z,14.13
2019-01-11T23:38:45.247Z,22.77
2019-01-11T23:40:50.514Z,14.90
2019-01-11T23:42:56.846Z,33.77
2019-01-11T23:45:01.832Z,17.43
2019-01-11T23:47:06.300Z,12.97
2019-01-11T23:49:10.755Z,16.07
2019-01-11T23:51:19.373Z,19.47
2019-01-11T23:53:30.673Z,22.13
2019-01-11T23:55:36.844Z,25.50
2019-01-11T23:57:43.130Z,22.70
2019-01-11T23:59:50.672Z,22.40
